sensor_id;sensor_type;location;lat;lon;timestamp;pressure;altitude;pressure_sealevel;temperature;humidity
47883;BME280;37739;50.350;7.578;2022-12-18T00:01:19;101055.44;;;-6.78;77.59
47883;BME280;37739;50.350;7.578;2022-12-18T00:03:48;101055.63;;;-6.76;77.65
47883;BME280;37739;50.350;7.578;2022-12-18T00:06:14;101056.84;;;-6.80;77.63
47883;BME280;37739;50.350;7.578;2022-12-18T00:08:43;101056.50;;;-6.83;77.64
47883;BME280;37739;50.350;7.578;2022-12-18T00:11:14;101055.75;;;-6.82;77.55
47883;BME280;37739;50.350;7.578;2022-12-18T00:13:42;101063.44;;;-6.80;77.80
47883;BME280;37739;50.350;7.578;2022-12-18T00:16:11;101056.16;;;-6.79;77.35
47883;BME280;37739;50.350;7.578;2022-12-18T00:18:42;101052.94;;;-6.78;77.98
47883;BME280;37739;50.350;7.578;2022-12-18T00:21:10;101052.06;;;-6.78;77.63
47883;BME280;37739;50.350;7.578;2022-12-18T00:23:36;101045.47;;;-6.78;77.71
47883;BME280;37739;50.350;7.578;2022-12-18T00:26:10;101044.38;;;-6.80;77.20
47883;BME280;37739;50.350;7.578;2022-12-18T00:28:38;101053.47;;;-6.80;77.29
47883;BME280;37739;50.350;7.578;2022-12-18T00:31:09;101055.28;;;-6.79;77.32
47883;BME280;37739;50.350;7.578;2022-12-18T00:33:35;101052.59;;;-6.81;77.22
47883;BME280;37739;50.350;7.578;2022-12-18T00:36:07;101048.47;;;-6.80;77.04
47883;BME280;37739;50.350;7.578;2022-12-18T00:38:36;101058.66;;;-6.79;77.48
47883;BME280;37739;50.350;7.578;2022-12-18T00:41:04;101054.34;;;-6.80;77.26
47883;BME280;37739;50.350;7.578;2022-12-18T00:43:30;101058.78;;;-6.84;77.13
47883;BME280;37739;50.350;7.578;2022-12-18T00:45:57;101051.28;;;-6.84;77.36
47883;BME280;37739;50.350;7.578;2022-12-18T00:48:23;101050.78;;;-6.82;77.56
47883;BME280;37739;50.350;7.578;2022-12-18T00:50:49;101055.44;;;-6.78;77.77
47883;BME280;37739;50.350;7.578;2022-12-18T00:53:15;101061.84;;;-6.80;77.34
47883;BME280;37739;50.350;7.578;2022-12-18T00:55:45;101055.44;;;-6.78;77.32
47883;BME280;37739;50.350;7.578;2022-12-18T00:58:12;101062.38;;;-6.82;76.86
47883;BME280;37739;50.350;7.578;2022-12-18T01:00:38;101054.69;;;-6.84;77.63
47883;BME280;37739;50.350;7.578;2022-12-18T01:03:06;101058.47;;;-6.80;77.56
47883;BME280;37739;50.350;7.578;2022-12-18T01:05:33;101068.44;;;-6.80;77.54
47883;BME280;37739;50.350;7.578;2022-12-18T01:08:01;101060.75;;;-6.82;77.35
47883;BME280;37739;50.350;7.578;2022-12-18T01:10:26;101061.63;;;-6.81;77.43
47883;BME280;37739;50.350;7.578;2022-12-18T01:12:52;101059.88;;;-6.82;77.69
47883;BME280;37739;50.350;7.578;2022-12-18T01:15:17;101055.75;;;-6.82;77.34
47883;BME280;37739;50.350;7.578;2022-12-18T01:17:43;101064.84;;;-6.82;77.43
47883;BME280;37739;50.350;7.578;2022-12-18T01:20:10;101067.34;;;-6.82;77.46
47883;BME280;37739;50.350;7.578;2022-12-18T01:22:36;101070.38;;;-6.85;77.43
47883;BME280;37739;50.350;7.578;2022-12-18T01:25:03;101072.16;;;-6.84;77.52
47883;BME280;37739;50.350;7.578;2022-12-18T01:27:32;101065.88;;;-6.87;77.10
47883;BME280;37739;50.350;7.578;2022-12-18T01:29:57;101061.63;;;-6.81;77.28
47883;BME280;37739;50.350;7.578;2022-12-18T01:32:23;101057.78;;;-6.79;77.08
47883;BME280;37739;50.350;7.578;2022-12-18T01:34:48;101051.50;;;-6.83;76.82
47883;BME280;37739;50.350;7.578;2022-12-18T01:37:16;101051.81;;;-6.87;77.12
47883;BME280;37739;50.350;7.578;2022-12-18T01:39:41;101047.31;;;-6.89;76.96
47883;BME280;37739;50.350;7.578;2022-12-18T01:42:14;101055.31;;;-6.92;76.97
47883;BME280;37739;50.350;7.578;2022-12-18T01:52:54;101067.72;;;-6.99;76.00
47883;BME280;37739;50.350;7.578;2022-12-18T01:55:23;101067.34;;;-7.02;76.16
47883;BME280;37739;50.350;7.578;2022-12-18T01:57:53;101069.88;;;-7.15;76.97
47883;BME280;37739;50.350;7.578;2022-12-18T02:00:20;101058.91;;;-7.10;76.48
47883;BME280;37739;50.350;7.578;2022-12-18T02:02:47;101056.00;;;-7.13;76.53
47883;BME280;37739;50.350;7.578;2022-12-18T02:05:16;101048.53;;;-7.13;75.89
47883;BME280;37739;50.350;7.578;2022-12-18T02:11:07;101055.44;;;-7.18;75.94
47883;BME280;37739;50.350;7.578;2022-12-18T02:19:00;101048.56;;;-7.26;75.96
47883;BME280;37739;50.350;7.578;2022-12-18T02:27:16;101046.03;;;-7.33;75.83
47883;BME280;37739;50.350;7.578;2022-12-18T02:29:50;101037.63;;;-7.34;75.44
47883;BME280;37739;50.350;7.578;2022-12-18T02:32:22;101029.78;;;-7.37;74.96
47883;BME280;37739;50.350;7.578;2022-12-18T02:34:50;101039.56;;;-7.38;75.61
47883;BME280;37739;50.350;7.578;2022-12-18T02:37:18;101040.25;;;-7.39;75.00
47883;BME280;37739;50.350;7.578;2022-12-18T02:39:47;101045.22;;;-7.39;75.66
47883;BME280;37739;50.350;7.578;2022-12-18T02:42:14;101049.53;;;-7.38;75.31
47883;BME280;37739;50.350;7.578;2022-12-18T02:44:49;101038.47;;;-7.40;75.33
47883;BME280;37739;50.350;7.578;2022-12-18T02:47:20;101038.47;;;-7.40;75.26
47883;BME280;37739;50.350;7.578;2022-12-18T02:52:53;101039.88;;;-7.55;75.34
47883;BME280;37739;50.350;7.578;2022-12-18T03:01:11;101032.41;;;-7.55;74.84
47883;BME280;37739;50.350;7.578;2022-12-18T03:03:56;101032.97;;;-7.51;74.80
47883;BME280;37739;50.350;7.578;2022-12-18T03:06:32;101026.34;;;-7.57;74.60
47883;BME280;37739;50.350;7.578;2022-12-18T03:09:02;101035.53;;;-7.63;74.29
47883;BME280;37739;50.350;7.578;2022-12-18T03:11:36;101032.31;;;-7.62;74.08
47883;BME280;37739;50.350;7.578;2022-12-18T03:14:23;101028.06;;;-7.63;74.71
47883;BME280;37739;50.350;7.578;2022-12-18T03:16:53;101023.97;;;-7.63;74.31
47883;BME280;37739;50.350;7.578;2022-12-18T03:19:21;101034.66;;;-7.64;73.90
47883;BME280;37739;50.350;7.578;2022-12-18T03:21:52;101044.41;;;-7.65;74.73
47883;BME280;37739;50.350;7.578;2022-12-18T03:24:20;101047.59;;;-7.66;74.34
47883;BME280;37739;50.350;7.578;2022-12-18T03:26:51;101040.81;;;-7.67;73.88
47883;BME280;37739;50.350;7.578;2022-12-18T03:29:32;101039.53;;;-7.71;73.86
47883;BME280;37739;50.350;7.578;2022-12-18T03:32:10;101030.97;;;-7.73;74.23
47883;BME280;37739;50.350;7.578;2022-12-18T03:34:38;101031.66;;;-7.74;74.07
47883;BME280;37739;50.350;7.578;2022-12-18T03:37:07;101034.88;;;-7.75;73.93
47883;BME280;37739;50.350;7.578;2022-12-18T03:39:38;101031.44;;;-7.76;73.41
47883;BME280;37739;50.350;7.578;2022-12-18T03:42:29;101029.78;;;-7.82;73.54
47883;BME280;37739;50.350;7.578;2022-12-18T03:45:04;101019.09;;;-7.81;73.89
47883;BME280;37739;50.350;7.578;2022-12-18T03:47:36;101026.09;;;-7.79;73.68
47883;BME280;37739;50.350;7.578;2022-12-18T03:52:38;101023.50;;;-7.86;73.44
47883;BME280;37739;50.350;7.578;2022-12-18T03:55:09;101016.53;;;-7.88;73.70
47883;BME280;37739;50.350;7.578;2022-12-18T03:57:37;101007.25;;;-7.90;73.58
47883;BME280;37739;50.350;7.578;2022-12-18T04:00:08;101010.47;;;-8.03;74.05
47883;BME280;37739;50.350;7.578;2022-12-18T04:02:39;101007.09;;;-8.04;73.97
47883;BME280;37739;50.350;7.578;2022-12-18T04:05:09;101011.00;;;-8.06;73.43
47883;BME280;37739;50.350;7.578;2022-12-18T04:07:36;101011.16;;;-8.04;73.91
47883;BME280;37739;50.350;7.578;2022-12-18T04:10:03;101016.16;;;-8.04;73.89
47883;BME280;37739;50.350;7.578;2022-12-18T04:12:29;100998.91;;;-8.03;73.78
47883;BME280;37739;50.350;7.578;2022-12-18T04:14:55;101012.19;;;-8.10;73.38
47883;BME280;37739;50.350;7.578;2022-12-18T04:17:21;101006.78;;;-8.13;74.24
47883;BME280;37739;50.350;7.578;2022-12-18T04:19:50;101003.22;;;-8.15;73.73
47883;BME280;37739;50.350;7.578;2022-12-18T04:22:17;100995.34;;;-8.05;74.31
47883;BME280;37739;50.350;7.578;2022-12-18T04:24:42;100994.66;;;-8.04;73.18
47883;BME280;37739;50.350;7.578;2022-12-18T04:27:08;101004.41;;;-8.05;73.39
47883;BME280;37739;50.350;7.578;2022-12-18T04:29:33;101005.50;;;-8.03;73.69
47883;BME280;37739;50.350;7.578;2022-12-18T04:32:01;101011.16;;;-8.04;73.22
47883;BME280;37739;50.350;7.578;2022-12-18T04:34:31;101012.09;;;-8.04;73.40
47883;BME280;37739;50.350;7.578;2022-12-18T04:36:56;101019.16;;;-8.07;73.28
47883;BME280;37739;50.350;7.578;2022-12-18T04:39:21;101011.88;;;-8.18;73.38
47883;BME280;37739;50.350;7.578;2022-12-18T04:41:49;101006.91;;;-8.18;73.99
47883;BME280;37739;50.350;7.578;2022-12-18T04:44:19;101007.09;;;-8.17;73.34
47883;BME280;37739;50.350;7.578;2022-12-18T04:46:44;101009.09;;;-8.14;73.66
47883;BME280;37739;50.350;7.578;2022-12-18T04:49:09;101004.81;;;-8.15;73.29
47883;BME280;37739;50.350;7.578;2022-12-18T04:51:38;100998.22;;;-8.15;73.11
47883;BME280;37739;50.350;7.578;2022-12-18T04:54:06;101009.59;;;-8.17;73.22
47883;BME280;37739;50.350;7.578;2022-12-18T04:56:34;101006.53;;;-8.21;73.22
47883;BME280;37739;50.350;7.578;2022-12-18T04:59:01;100999.72;;;-8.22;72.84
47883;BME280;37739;50.350;7.578;2022-12-18T05:01:29;100997.56;;;-8.26;73.29
47883;BME280;37739;50.350;7.578;2022-12-18T05:03:54;100995.56;;;-8.29;73.17
47883;BME280;37739;50.350;7.578;2022-12-18T05:06:19;101004.13;;;-8.27;72.77
47883;BME280;37739;50.350;7.578;2022-12-18T05:08:47;100999.16;;;-8.27;72.77
47883;BME280;37739;50.350;7.578;2022-12-18T05:11:14;100998.44;;;-8.26;72.25
47883;BME280;37739;50.350;7.578;2022-12-18T05:13:41;101003.03;;;-8.29;72.45
47883;BME280;37739;50.350;7.578;2022-12-18T05:16:09;101005.72;;;-8.40;73.50
47883;BME280;37739;50.350;7.578;2022-12-18T05:18:34;100998.16;;;-8.35;72.86
47883;BME280;37739;50.350;7.578;2022-12-18T05:20:59;100998.84;;;-8.36;72.67
47883;BME280;37739;50.350;7.578;2022-12-18T05:23:25;100996.47;;;-8.41;72.82
47883;BME280;37739;50.350;7.578;2022-12-18T05:25:58;100997.00;;;-8.44;72.81
47883;BME280;37739;50.350;7.578;2022-12-18T05:28:27;101000.88;;;-8.46;72.65
47883;BME280;37739;50.350;7.578;2022-12-18T05:30:57;100999.38;;;-8.51;72.07
47883;BME280;37739;50.350;7.578;2022-12-18T05:33:28;100994.19;;;-8.53;72.60
47883;BME280;37739;50.350;7.578;2022-12-18T05:35:55;100995.69;;;-8.47;72.87
47883;BME280;37739;50.350;7.578;2022-12-18T05:38:22;100986.44;;;-8.48;72.07
47883;BME280;37739;50.350;7.578;2022-12-18T05:40:48;100994.09;;;-8.60;72.48
47883;BME280;37739;50.350;7.578;2022-12-18T05:43:14;100989.13;;;-8.60;72.86
47883;BME280;37739;50.350;7.578;2022-12-18T05:45:40;100988.63;;;-8.57;72.95
47883;BME280;37739;50.350;7.578;2022-12-18T05:48:06;100991.78;;;-8.58;72.68
47883;BME280;37739;50.350;7.578;2022-12-18T05:50:36;100988.88;;;-8.74;73.12
47883;BME280;37739;50.350;7.578;2022-12-18T05:53:05;101001.03;;;-8.83;72.92
47883;BME280;37739;50.350;7.578;2022-12-18T05:55:34;101004.81;;;-8.79;73.40
47883;BME280;37739;50.350;7.578;2022-12-18T05:58:03;100999.13;;;-8.78;73.14
47883;BME280;37739;50.350;7.578;2022-12-18T06:00:31;100997.06;;;-8.75;73.28
47883;BME280;37739;50.350;7.578;2022-12-18T06:03:01;101005.81;;;-8.84;73.55
47883;BME280;37739;50.350;7.578;2022-12-18T06:05:35;101003.03;;;-8.80;73.38
47883;BME280;37739;50.350;7.578;2022-12-18T06:08:00;101004.31;;;-8.77;74.00
47883;BME280;37739;50.350;7.578;2022-12-18T06:10:28;101001.66;;;-8.65;73.82
47883;BME280;37739;50.350;7.578;2022-12-18T06:12:53;101002.44;;;-8.59;72.93
47883;BME280;37739;50.350;7.578;2022-12-18T06:15:19;101016.41;;;-8.54;73.04
47883;BME280;37739;50.350;7.578;2022-12-18T06:17:46;101020.00;;;-8.52;73.00
47883;BME280;37739;50.350;7.578;2022-12-18T06:20:16;101024.13;;;-8.58;72.90
47883;BME280;37739;50.350;7.578;2022-12-18T06:22:42;101030.88;;;-8.70;73.30
47883;BME280;37739;50.350;7.578;2022-12-18T06:25:07;101028.81;;;-8.67;73.12
47883;BME280;37739;50.350;7.578;2022-12-18T06:27:37;101027.94;;;-8.67;72.63
47883;BME280;37739;50.350;7.578;2022-12-18T06:30:05;101035.19;;;-8.69;72.64
47883;BME280;37739;50.350;7.578;2022-12-18T06:32:31;101033.19;;;-8.72;72.34
47883;BME280;37739;50.350;7.578;2022-12-18T06:34:58;101036.78;;;-8.70;72.32
47883;BME280;37739;50.350;7.578;2022-12-18T06:37:24;101041.25;;;-8.67;72.23
47883;BME280;37739;50.350;7.578;2022-12-18T06:39:53;101032.69;;;-8.69;71.73
47883;BME280;37739;50.350;7.578;2022-12-18T06:42:21;101034.75;;;-8.72;72.07
47883;BME280;37739;50.350;7.578;2022-12-18T06:44:46;101035.47;;;-8.73;71.81
47883;BME280;37739;50.350;7.578;2022-12-18T06:47:12;101048.81;;;-8.73;71.55
47883;BME280;37739;50.350;7.578;2022-12-18T06:49:40;101048.81;;;-8.73;71.94
47883;BME280;37739;50.350;7.578;2022-12-18T06:52:05;101045.44;;;-8.73;71.13
47883;BME280;37739;50.350;7.578;2022-12-18T06:54:35;101050.47;;;-8.79;71.68
47883;BME280;37739;50.350;7.578;2022-12-18T06:57:05;101043.91;;;-8.78;71.45
47883;BME280;37739;50.350;7.578;2022-12-18T06:59:33;101040.31;;;-8.80;71.53
47883;BME280;37739;50.350;7.578;2022-12-18T07:01:58;101037.75;;;-8.75;71.69
47883;BME280;37739;50.350;7.578;2022-12-18T07:04:34;101027.88;;;-8.80;71.48
47883;BME280;37739;50.350;7.578;2022-12-18T07:07:00;101044.19;;;-8.82;71.10
47883;BME280;37739;50.350;7.578;2022-12-18T07:09:27;101033.38;;;-8.83;71.36
47883;BME280;37739;50.350;7.578;2022-12-18T07:11:55;101030.84;;;-8.96;70.44
47883;BME280;37739;50.350;7.578;2022-12-18T07:14:20;101023.97;;;-9.04;70.06
47883;BME280;37739;50.350;7.578;2022-12-18T07:16:46;101019.66;;;-9.05;70.01
47883;BME280;37739;50.350;7.578;2022-12-18T07:19:11;101021.75;;;-9.08;70.25
47883;BME280;37739;50.350;7.578;2022-12-18T07:21:37;101018.97;;;-9.04;69.91
47883;BME280;37739;50.350;7.578;2022-12-18T07:24:04;101014.31;;;-9.08;69.80
47883;BME280;37739;50.350;7.578;2022-12-18T07:26:32;101019.03;;;-9.41;70.46
47883;BME280;37739;50.350;7.578;2022-12-18T07:28:58;101025.66;;;-9.47;70.47
47883;BME280;37739;50.350;7.578;2022-12-18T07:31:23;101035.47;;;-9.54;71.14
47883;BME280;37739;50.350;7.578;2022-12-18T07:33:49;101051.94;;;-9.55;70.97
47883;BME280;37739;50.350;7.578;2022-12-18T07:36:15;101051.13;;;-9.42;71.19
47883;BME280;37739;50.350;7.578;2022-12-18T07:38:40;101058.31;;;-9.38;70.83
47883;BME280;37739;50.350;7.578;2022-12-18T07:41:12;101062.78;;;-9.36;70.30
47883;BME280;37739;50.350;7.578;2022-12-18T07:43:39;101059.34;;;-9.31;70.76
47883;BME280;37739;50.350;7.578;2022-12-18T07:46:05;101058.25;;;-9.33;70.00
47883;BME280;37739;50.350;7.578;2022-12-18T07:48:33;101067.81;;;-9.23;70.44
47883;BME280;37739;50.350;7.578;2022-12-18T07:51:05;101056.00;;;-9.18;70.09
47883;BME280;37739;50.350;7.578;2022-12-18T07:53:36;101053.38;;;-9.07;70.59
47883;BME280;37739;50.350;7.578;2022-12-18T07:56:09;101051.31;;;-8.91;71.43
47883;BME280;37739;50.350;7.578;2022-12-18T07:58:37;101048.38;;;-8.89;71.39
47883;BME280;37739;50.350;7.578;2022-12-18T08:01:04;101050.06;;;-8.82;71.93
47883;BME280;37739;50.350;7.578;2022-12-18T08:03:29;101048.69;;;-8.80;71.47
47883;BME280;37739;50.350;7.578;2022-12-18T08:06:01;101043.59;;;-8.87;71.24
47883;BME280;37739;50.350;7.578;2022-12-18T08:08:27;101049.25;;;-8.88;71.86
47883;BME280;37739;50.350;7.578;2022-12-18T08:10:56;101061.19;;;-8.85;71.50
47883;BME280;37739;50.350;7.578;2022-12-18T08:13:26;101056.03;;;-8.87;71.95
47883;BME280;37739;50.350;7.578;2022-12-18T08:16:01;101048.59;;;-8.87;71.49
47883;BME280;37739;50.350;7.578;2022-12-18T08:18:27;101047.78;;;-8.80;71.59
47883;BME280;37739;50.350;7.578;2022-12-18T08:20:55;101042.53;;;-8.76;72.49
47883;BME280;37739;50.350;7.578;2022-12-18T08:23:21;101025.03;;;-8.71;72.00
47883;BME280;37739;50.350;7.578;2022-12-18T08:25:46;101020.84;;;-8.64;72.67
47883;BME280;37739;50.350;7.578;2022-12-18T08:28:12;101012.69;;;-8.63;72.55
47883;BME280;37739;50.350;7.578;2022-12-18T08:30:37;101013.78;;;-8.61;73.03
47883;BME280;37739;50.350;7.578;2022-12-18T08:33:05;101009.13;;;-8.53;72.99
47883;BME280;37739;50.350;7.578;2022-12-18T08:35:35;101002.66;;;-8.45;73.25
47883;BME280;37739;50.350;7.578;2022-12-18T08:38:01;100994.16;;;-8.40;73.88
47883;BME280;37739;50.350;7.578;2022-12-18T08:40:26;100995.38;;;-8.31;73.98
47883;BME280;37739;50.350;7.578;2022-12-18T08:42:51;101008.41;;;-8.26;73.24
47883;BME280;37739;50.350;7.578;2022-12-18T08:45:46;101007.00;;;-8.11;74.20
47883;BME280;37739;50.350;7.578;2022-12-18T08:48:11;101012.78;;;-8.18;73.04
47883;BME280;37739;50.350;7.578;2022-12-18T08:50:36;101023.22;;;-8.20;72.38
47883;BME280;37739;50.350;7.578;2022-12-18T08:53:04;101021.66;;;-8.33;72.61
47883;BME280;37739;50.350;7.578;2022-12-18T08:55:29;101025.03;;;-8.32;72.66
47883;BME280;37739;50.350;7.578;2022-12-18T08:57:57;101033.38;;;-8.32;72.57
47883;BME280;37739;50.350;7.578;2022-12-18T09:00:24;101024.34;;;-8.31;72.11
47883;BME280;37739;50.350;7.578;2022-12-18T09:02:50;101017.88;;;-8.36;72.60
47883;BME280;37739;50.350;7.578;2022-12-18T09:05:17;101022.25;;;-8.41;73.18
47883;BME280;37739;50.350;7.578;2022-12-18T09:07:45;101019.94;;;-8.39;72.52
47883;BME280;37739;50.350;7.578;2022-12-18T09:10:10;101027.63;;;-8.38;72.71
47883;BME280;37739;50.350;7.578;2022-12-18T09:12:36;101020.75;;;-8.33;72.95
47883;BME280;37739;50.350;7.578;2022-12-18T09:15:01;101017.47;;;-8.26;73.22
47883;BME280;37739;50.350;7.578;2022-12-18T09:17:29;101026.50;;;-8.14;73.77
47883;BME280;37739;50.350;7.578;2022-12-18T09:19:54;101027.19;;;-7.90;74.86
47883;BME280;37739;50.350;7.578;2022-12-18T09:22:20;101031.34;;;-7.70;75.32
47883;BME280;37739;50.350;7.578;2022-12-18T09:24:45;101019.31;;;-7.47;75.60
47883;BME280;37739;50.350;7.578;2022-12-18T09:27:12;101014.88;;;-7.30;75.02
47883;BME280;37739;50.350;7.578;2022-12-18T09:29:38;101019.63;;;-7.18;75.69
47883;BME280;37739;50.350;7.578;2022-12-18T09:32:03;101021.66;;;-7.08;75.59
47883;BME280;37739;50.350;7.578;2022-12-18T09:34:31;101022.63;;;-7.01;75.68
47883;BME280;37739;50.350;7.578;2022-12-18T09:36:58;101033.03;;;-7.11;74.28
47883;BME280;37739;50.350;7.578;2022-12-18T09:39:26;101035.72;;;-7.29;73.61
47883;BME280;37739;50.350;7.578;2022-12-18T09:41:57;101025.16;;;-7.34;73.82
47883;BME280;37739;50.350;7.578;2022-12-18T09:44:39;101021.22;;;-7.39;73.66
47883;BME280;37739;50.350;7.578;2022-12-18T09:47:13;101012.78;;;-7.26;74.12
47883;BME280;37739;50.350;7.578;2022-12-18T09:49:47;101008.56;;;-7.00;74.95
47883;BME280;37739;50.350;7.578;2022-12-18T09:52:33;101007.66;;;-6.81;74.02
47883;BME280;37739;50.350;7.578;2022-12-18T09:55:24;101005.72;;;-6.76;72.99
47883;BME280;37739;50.350;7.578;2022-12-18T09:57:56;101010.97;;;-6.67;74.47
47883;BME280;37739;50.350;7.578;2022-12-18T10:00:24;100996.47;;;-6.50;74.32
47883;BME280;37739;50.350;7.578;2022-12-18T10:02:52;100991.41;;;-6.30;75.41
47883;BME280;37739;50.350;7.578;2022-12-18T10:16:16;100981.78;;;-5.78;75.39
47883;BME280;37739;50.350;7.578;2022-12-18T10:24:39;100966.38;;;-6.03;75.13
47883;BME280;37739;50.350;7.578;2022-12-18T10:27:14;100963.34;;;-5.93;75.39
47883;BME280;37739;50.350;7.578;2022-12-18T10:29:47;100959.63;;;-5.97;74.66
47883;BME280;37739;50.350;7.578;2022-12-18T10:32:22;100967.00;;;-6.25;74.66
47883;BME280;37739;50.350;7.578;2022-12-18T10:34:54;100955.63;;;-6.16;74.38
47883;BME280;37739;50.350;7.578;2022-12-18T10:37:23;100952.28;;;-6.09;75.36
47883;BME280;37739;50.350;7.578;2022-12-18T10:40:12;100952.66;;;-5.99;75.70
47883;BME280;37739;50.350;7.578;2022-12-18T10:42:40;100959.44;;;-5.91;76.90
47883;BME280;37739;50.350;7.578;2022-12-18T10:45:17;100962.69;;;-5.78;76.30
47883;BME280;37739;50.350;7.578;2022-12-18T10:47:46;100964.69;;;-5.68;76.68
47883;BME280;37739;50.350;7.578;2022-12-18T10:50:25;100959.00;;;-5.53;76.25
47883;BME280;37739;50.350;7.578;2022-12-18T10:52:58;100939.03;;;-5.38;76.58
47883;BME280;37739;50.350;7.578;2022-12-18T10:55:31;100936.91;;;-5.21;75.65
47883;BME280;37739;50.350;7.578;2022-12-18T10:58:34;100936.00;;;-5.07;75.02
47883;BME280;37739;50.350;7.578;2022-12-18T11:01:16;100941.53;;;-4.95;75.51
47883;BME280;37739;50.350;7.578;2022-12-18T11:04:08;100938.31;;;-4.94;75.69
47883;BME280;37739;50.350;7.578;2022-12-18T11:06:34;100936.91;;;-4.92;75.81
47883;BME280;37739;50.350;7.578;2022-12-18T11:09:05;100934.03;;;-4.95;75.96
47883;BME280;37739;50.350;7.578;2022-12-18T11:11:32;100939.72;;;-4.82;76.68
47883;BME280;37739;50.350;7.578;2022-12-18T11:14:06;100939.91;;;-4.95;76.06
47883;BME280;37739;50.350;7.578;2022-12-18T11:16:46;100941.69;;;-4.72;75.89
47883;BME280;37739;50.350;7.578;2022-12-18T11:19:35;100949.94;;;-4.73;76.13
47883;BME280;37739;50.350;7.578;2022-12-18T11:22:28;100957.22;;;-4.60;76.63
47883;BME280;37739;50.350;7.578;2022-12-18T11:25:18;100950.44;;;-4.61;75.49
47883;BME280;37739;50.350;7.578;2022-12-18T11:27:48;100951.16;;;-4.55;75.93
47883;BME280;37739;50.350;7.578;2022-12-18T11:30:32;100947.06;;;-4.62;76.49
47883;BME280;37739;50.350;7.578;2022-12-18T11:35:45;100932.84;;;-4.40;76.21
47883;BME280;37739;50.350;7.578;2022-12-18T11:38:21;100939.63;;;-4.31;75.99
47883;BME280;37739;50.350;7.578;2022-12-18T11:40:57;100931.03;;;-4.34;75.91
47883;BME280;37739;50.350;7.578;2022-12-18T11:46:07;100929.97;;;-4.28;77.03
47883;BME280;37739;50.350;7.578;2022-12-18T11:48:48;100935.84;;;-4.21;75.83
47883;BME280;37739;50.350;7.578;2022-12-18T11:51:25;100924.00;;;-4.15;76.22
47883;BME280;37739;50.350;7.578;2022-12-18T11:53:54;100926.09;;;-4.03;76.03
47883;BME280;37739;50.350;7.578;2022-12-18T11:58:57;100925.09;;;-3.82;76.84
47883;BME280;37739;50.350;7.578;2022-12-18T12:09:41;100915.16;;;-3.66;78.61
47883;BME280;37739;50.350;7.578;2022-12-18T12:17:47;100906.84;;;-3.58;78.08
47883;BME280;37739;50.350;7.578;2022-12-18T12:27:58;100902.47;;;-3.45;78.50
47883;BME280;37739;50.350;7.578;2022-12-18T12:30:38;100901.13;;;-3.34;77.81
47883;BME280;37739;50.350;7.578;2022-12-18T12:36:37;100895.91;;;-3.28;77.10
47883;BME280;37739;50.350;7.578;2022-12-18T12:39:09;100893.84;;;-3.40;76.66
47883;BME280;37739;50.350;7.578;2022-12-18T12:41:38;100882.59;;;-3.50;77.58
47883;BME280;37739;50.350;7.578;2022-12-18T12:44:29;100871.13;;;-3.48;77.53
47883;BME280;37739;50.350;7.578;2022-12-18T12:46:59;100876.00;;;-3.50;77.17
47883;BME280;37739;50.350;7.578;2022-12-18T12:49:33;100858.22;;;-3.44;77.39
47883;BME280;37739;50.350;7.578;2022-12-18T12:52:07;100849.56;;;-3.39;77.33
47883;BME280;37739;50.350;7.578;2022-12-18T12:54:36;100836.28;;;-3.38;77.18
47883;BME280;37739;50.350;7.578;2022-12-18T12:57:13;100829.75;;;-3.29;77.68
47883;BME280;37739;50.350;7.578;2022-12-18T12:59:56;100835.66;;;-3.28;77.69
47883;BME280;37739;50.350;7.578;2022-12-18T13:05:18;100832.03;;;-3.23;78.42
47883;BME280;37739;50.350;7.578;2022-12-18T13:07:55;100809.28;;;-3.25;77.88
47883;BME280;37739;50.350;7.578;2022-12-18T13:10:26;100818.81;;;-3.29;77.82
47883;BME280;37739;50.350;7.578;2022-12-18T13:15:43;100835.97;;;-3.25;76.84
47883;BME280;37739;50.350;7.578;2022-12-18T13:20:36;100840.16;;;-3.33;76.11
47883;BME280;37739;50.350;7.578;2022-12-18T13:32:21;100831.44;;;-3.37;75.73
47883;BME280;37739;50.350;7.578;2022-12-18T13:34:28;100816.41;;;-3.37;76.59
47883;BME280;37739;50.350;7.578;2022-12-18T13:39:57;100803.75;;;-3.29;75.87
47883;BME280;37739;50.350;7.578;2022-12-18T13:42:36;100803.97;;;-3.35;75.71
47883;BME280;37739;50.350;7.578;2022-12-18T13:45:45;100803.97;;;-3.35;76.25
47883;BME280;37739;50.350;7.578;2022-12-18T13:48:22;100803.84;;;-3.37;75.85
47883;BME280;37739;50.350;7.578;2022-12-18T13:50:59;100795.09;;;-3.40;76.17
47883;BME280;37739;50.350;7.578;2022-12-18T13:53:39;100801.88;;;-3.39;77.19
47883;BME280;37739;50.350;7.578;2022-12-18T13:56:09;100807.41;;;-3.34;75.96
47883;BME280;37739;50.350;7.578;2022-12-18T13:58:40;100804.38;;;-3.39;75.54
47883;BME280;37739;50.350;7.578;2022-12-18T14:01:21;100806.66;;;-3.33;75.82
47883;BME280;37739;50.350;7.578;2022-12-18T14:03:52;100807.41;;;-3.34;75.84
47883;BME280;37739;50.350;7.578;2022-12-18T14:06:34;100810.69;;;-3.43;76.72
47883;BME280;37739;50.350;7.578;2022-12-18T14:08:59;100809.41;;;-3.39;75.83
47883;BME280;37739;50.350;7.578;2022-12-18T14:11:25;100812.75;;;-3.55;76.98
47883;BME280;37739;50.350;7.578;2022-12-18T14:13:52;100815.09;;;-3.56;76.78
47883;BME280;37739;50.350;7.578;2022-12-18T14:16:17;100815.94;;;-3.48;75.97
47883;BME280;37739;50.350;7.578;2022-12-18T14:18:58;100814.72;;;-3.52;76.01
47883;BME280;37739;50.350;7.578;2022-12-18T14:21:28;100813.09;;;-3.51;75.93
47883;BME280;37739;50.350;7.578;2022-12-18T14:26:42;100819.34;;;-3.48;75.58
47883;BME280;37739;50.350;7.578;2022-12-18T14:31:50;100817.91;;;-3.46;76.10
47883;BME280;37739;50.350;7.578;2022-12-18T14:34:28;100814.00;;;-3.51;75.89
47883;BME280;37739;50.350;7.578;2022-12-18T14:36:54;100808.09;;;-3.51;76.10
47883;BME280;37739;50.350;7.578;2022-12-18T14:39:21;100810.47;;;-3.60;75.30
47883;BME280;37739;50.350;7.578;2022-12-18T14:41:48;100797.22;;;-3.59;76.26
47883;BME280;37739;50.350;7.578;2022-12-18T14:44:14;100786.31;;;-3.60;76.16
47883;BME280;37739;50.350;7.578;2022-12-18T14:46:43;100792.78;;;-3.62;76.52
47883;BME280;37739;50.350;7.578;2022-12-18T14:51:53;100785.47;;;-3.67;76.40
47883;BME280;37739;50.350;7.578;2022-12-18T14:54:23;100782.06;;;-3.68;76.26
47883;BME280;37739;50.350;7.578;2022-12-18T14:57:04;100783.28;;;-3.64;76.45